首页
METAR-TAF:

METAR-TAF

机场 :

都柏林机场

都柏林, 爱尔兰

纬度: 53-26N, 经度: 006-15W, 海拔: 68米

当前天气观测

该预报发布于15分钟前的08:30 UTC
风速10节,风向西转西南,在西转西北之间变化
温度 17°C
湿度 82%
气压 1014 hPa
能见度10公里或以上
散云层高于1000英尺
散云层高于1300英尺
多云层高于2800英尺

METAR: EIDW 140830Z 25010KT 190V290 9999 SCT010 SCT013 BKN028 17/14 Q1014 NOSIG

时间: 09:45 (08:45 UTC)

预报

该预报发布于25分钟前的08:20 UTC
预报有效从14日的 08点(UTC)到 15日的 06点(UTC)
风速15节,风向西转西南
能见度10公里或以上
散云层高于1200英尺
多云层高于2500英尺
短暂存在
从 14日的 08点(UTC)到 14日的 10点(UTC)
散云层高于800英尺
多云层高于1000英尺
小雨, 毛毛雨

TAF: EIDW 140820Z 1408/1506 25015KT 9999 SCT012 BKN025 TEMPO 1408/1410 -RADZ SCT008 BKN010

超过4000个机场的气象观测和天气预报(METAR&TAF报告)。

可查询的气象台以黄色和红色小点在地图上表示。

将鼠标移到小点上方,可查看气象台名称。

然后点击查看天气观测和预报。

如需切换地图:点击带黑十字的绿色按钮放大地图;点击带横线的绿色按钮缩小地图;或者点击绿色箭头查看邻近地区的地图。


METAR-TAF: